Accueil
METAR-TAF:

METAR-TAF

Aéroports :

Büchel, Allemagne

Base aérienne de Büchel

latitude: 50-10N, longitude: 007-04E, altitude: 478 m

Observation

Le bulletin a été fait il y a 46 minutes, à 20:20 UTC
Vent 9 kt de sud-ouest
Température 13°C
Humidité 62%
Pression 1014 hPa
Visibilité 10 km ou plus

METAR: ETSB 242020Z AUTO 23009KT 9999 // ////// 13/06 Q1014 ///

Heure: 23:06 (21:06 UTC)

Prévision

Le bulletin a été fait il y a 4 heures et 51 minutes, à 16:15 UTC
Prévision valable du 24 à 16 UTC au 24 à 23 UTC
Vent 10 kt de ouest/sud-ouest avec des rafales jusqu'à 20 kt
Visibilité 10 km ou plus
Quelques nuages à une hauteur de 4000 ft
Nuages fragmentés à une hauteur de 18000 ft

TAF: ETSB 241615Z 2416/2423 24010G20KT 9999 NSW FEW040 BKN180 CANCEL BY ETGL

Observations et prévisions météorologiques de plus de 4000 aéroports (messages METAR et TAF).

Les stations disponibles sont représentées par des disques jaunes et rouges sur la carte.

Passer la souris dessus pour voir le nom de la station.

Cliquer dessus pour voir les observations et prévisions météorologiques.

Pour changer de carte: cliquez sur les boutons verts avec une croix noire pour zoomer, sur le bouton vert avec un tiret pour effectuer un zoom arrière, ou sur les flèches vertes pour les cartes adjacentes.


METAR-TAF: